sensor_id;sensor_type;location;lat;lon;timestamp;P1;durP1;ratioP1;P2;durP2;ratioP2
71622;SDS011;59473;53.214;5.728;2022-07-17T00:01:39;4.33;;;2.10;;
71622;SDS011;59473;53.214;5.728;2022-07-17T00:04:04;4.03;;;2.17;;
71622;SDS011;59473;53.214;5.728;2022-07-17T00:06:30;5.23;;;2.37;;
71622;SDS011;59473;53.214;5.728;2022-07-17T00:08:55;6.47;;;2.17;;
71622;SDS011;59473;53.214;5.728;2022-07-17T00:11:20;5.10;;;2.20;;
71622;SDS011;59473;53.214;5.728;2022-07-17T00:13:45;4.50;;;2.00;;
71622;SDS011;59473;53.214;5.728;2022-07-17T00:16:11;7.57;;;2.80;;
71622;SDS011;59473;53.214;5.728;2022-07-17T00:18:36;8.77;;;3.30;;
71622;SDS011;59473;53.214;5.728;2022-07-17T00:21:01;7.10;;;3.33;;
71622;SDS011;59473;53.214;5.728;2022-07-17T00:23:26;9.83;;;3.53;;
71622;SDS011;59473;53.214;5.728;2022-07-17T00:25:52;7.30;;;3.27;;
71622;SDS011;59473;53.214;5.728;2022-07-17T00:28:17;11.57;;;3.50;;
71622;SDS011;59473;53.214;5.728;2022-07-17T00:30:42;7.97;;;3.33;;
71622;SDS011;59473;53.214;5.728;2022-07-17T00:33:07;7.47;;;3.30;;
71622;SDS011;59473;53.214;5.728;2022-07-17T00:35:33;14.00;;;2.70;;
71622;SDS011;59473;53.214;5.728;2022-07-17T00:37:58;4.20;;;2.47;;
71622;SDS011;59473;53.214;5.728;2022-07-17T00:40:23;5.00;;;2.67;;
71622;SDS011;59473;53.214;5.728;2022-07-17T00:42:50;6.35;;;2.80;;
71622;SDS011;59473;53.214;5.728;2022-07-17T00:45:15;6.82;;;2.53;;
71622;SDS011;59473;53.214;5.728;2022-07-17T00:48:00;11.23;;;3.30;;
71622;SDS011;59473;53.214;5.728;2022-07-17T00:50:30;5.45;;;2.63;;
71622;SDS011;59473;53.214;5.728;2022-07-17T00:52:56;5.50;;;2.57;;
71622;SDS011;59473;53.214;5.728;2022-07-17T00:55:22;8.07;;;3.10;;
71622;SDS011;59473;53.214;5.728;2022-07-17T00:57:47;6.83;;;2.80;;
71622;SDS011;59473;53.214;5.728;2022-07-17T01:00:13;7.18;;;3.38;;
71622;SDS011;59473;53.214;5.728;2022-07-17T01:02:38;6.97;;;3.00;;
71622;SDS011;59473;53.214;5.728;2022-07-17T01:05:04;8.90;;;3.30;;
71622;SDS011;59473;53.214;5.728;2022-07-17T01:07:29;9.27;;;3.45;;
71622;SDS011;59473;53.214;5.728;2022-07-17T01:09:55;7.63;;;2.63;;
71622;SDS011;59473;53.214;5.728;2022-07-17T01:12:20;6.60;;;3.30;;
71622;SDS011;59473;53.214;5.728;2022-07-17T01:14:46;9.47;;;3.30;;
71622;SDS011;59473;53.214;5.728;2022-07-17T01:17:11;8.10;;;3.30;;
71622;SDS011;59473;53.214;5.728;2022-07-17T01:19:37;9.40;;;3.40;;
71622;SDS011;59473;53.214;5.728;2022-07-17T01:22:02;11.77;;;3.70;;
71622;SDS011;59473;53.214;5.728;2022-07-17T01:24:29;4.40;;;2.33;;
71622;SDS011;59473;53.214;5.728;2022-07-17T01:26:54;8.00;;;2.30;;
71622;SDS011;59473;53.214;5.728;2022-07-17T01:29:19;6.07;;;2.57;;
71622;SDS011;59473;53.214;5.728;2022-07-17T01:31:45;6.60;;;2.83;;
71622;SDS011;59473;53.214;5.728;2022-07-17T01:34:10;8.13;;;2.90;;
71622;SDS011;59473;53.214;5.728;2022-07-17T01:36:37;8.32;;;3.72;;
71622;SDS011;59473;53.214;5.728;2022-07-17T01:39:03;5.47;;;2.20;;
71622;SDS011;59473;53.214;5.728;2022-07-17T01:41:28;4.93;;;3.00;;
71622;SDS011;59473;53.214;5.728;2022-07-17T01:43:54;4.43;;;2.50;;
71622;SDS011;59473;53.214;5.728;2022-07-17T01:46:19;7.47;;;3.37;;
71622;SDS011;59473;53.214;5.728;2022-07-17T01:48:44;3.97;;;2.07;;
71622;SDS011;59473;53.214;5.728;2022-07-17T01:51:09;7.77;;;2.07;;
71622;SDS011;59473;53.214;5.728;2022-07-17T01:53:35;3.77;;;2.03;;
71622;SDS011;59473;53.214;5.728;2022-07-17T01:56:00;3.83;;;2.30;;
71622;SDS011;59473;53.214;5.728;2022-07-17T01:58:25;5.70;;;2.03;;
71622;SDS011;59473;53.214;5.728;2022-07-17T02:00:51;6.37;;;2.40;;
71622;SDS011;59473;53.214;5.728;2022-07-17T02:03:16;7.53;;;3.28;;
71622;SDS011;59473;53.214;5.728;2022-07-17T02:05:42;7.87;;;2.87;;
71622;SDS011;59473;53.214;5.728;2022-07-17T02:08:07;8.97;;;3.30;;
71622;SDS011;59473;53.214;5.728;2022-07-17T02:10:32;10.00;;;3.50;;
71622;SDS011;59473;53.214;5.728;2022-07-17T02:12:57;9.07;;;3.23;;
71622;SDS011;59473;53.214;5.728;2022-07-17T02:15:23;8.30;;;3.00;;
71622;SDS011;59473;53.214;5.728;2022-07-17T02:17:48;9.23;;;3.17;;
71622;SDS011;59473;53.214;5.728;2022-07-17T02:20:13;8.90;;;3.27;;
71622;SDS011;59473;53.214;5.728;2022-07-17T02:22:39;8.80;;;3.40;;
71622;SDS011;59473;53.214;5.728;2022-07-17T02:25:05;6.85;;;3.10;;
71622;SDS011;59473;53.214;5.728;2022-07-17T02:27:31;8.98;;;3.53;;
71622;SDS011;59473;53.214;5.728;2022-07-17T02:29:56;6.00;;;3.07;;
71622;SDS011;59473;53.214;5.728;2022-07-17T02:32:21;7.90;;;3.97;;
71622;SDS011;59473;53.214;5.728;2022-07-17T02:34:47;9.40;;;3.47;;
71622;SDS011;59473;53.214;5.728;2022-07-17T02:37:12;9.60;;;3.20;;
71622;SDS011;59473;53.214;5.728;2022-07-17T02:39:37;6.03;;;2.87;;
71622;SDS011;59473;53.214;5.728;2022-07-17T02:42:17;7.88;;;3.08;;
71622;SDS011;59473;53.214;5.728;2022-07-17T02:44:42;7.13;;;3.13;;
71622;SDS011;59473;53.214;5.728;2022-07-17T02:47:07;6.80;;;3.23;;
71622;SDS011;59473;53.214;5.728;2022-07-17T02:49:32;6.23;;;3.10;;
71622;SDS011;59473;53.214;5.728;2022-07-17T02:51:57;5.60;;;3.30;;
71622;SDS011;59473;53.214;5.728;2022-07-17T02:54:23;6.50;;;3.87;;
71622;SDS011;59473;53.214;5.728;2022-07-17T02:56:49;7.45;;;3.30;;
71622;SDS011;59473;53.214;5.728;2022-07-17T02:59:14;9.17;;;3.50;;
71622;SDS011;59473;53.214;5.728;2022-07-17T03:01:39;9.03;;;3.43;;
71622;SDS011;59473;53.214;5.728;2022-07-17T03:04:04;7.60;;;3.43;;
71622;SDS011;59473;53.214;5.728;2022-07-17T03:06:30;5.73;;;3.20;;
71622;SDS011;59473;53.214;5.728;2022-07-17T03:08:55;7.13;;;3.10;;
71622;SDS011;59473;53.214;5.728;2022-07-17T03:11:20;9.77;;;3.67;;
71622;SDS011;59473;53.214;5.728;2022-07-17T03:13:45;10.17;;;3.50;;
71622;SDS011;59473;53.214;5.728;2022-07-17T03:16:10;10.73;;;3.40;;
71622;SDS011;59473;53.214;5.728;2022-07-17T03:18:36;7.97;;;3.60;;
71622;SDS011;59473;53.214;5.728;2022-07-17T03:21:01;6.73;;;3.20;;
71622;SDS011;59473;53.214;5.728;2022-07-17T03:23:26;11.10;;;3.20;;
71622;SDS011;59473;53.214;5.728;2022-07-17T03:25:52;7.33;;;3.33;;
71622;SDS011;59473;53.214;5.728;2022-07-17T03:28:17;7.35;;;3.00;;
71622;SDS011;59473;53.214;5.728;2022-07-17T03:30:43;7.17;;;2.60;;
71622;SDS011;59473;53.214;5.728;2022-07-17T03:33:08;9.10;;;2.70;;
71622;SDS011;59473;53.214;5.728;2022-07-17T03:35:33;7.93;;;3.10;;
71622;SDS011;59473;53.214;5.728;2022-07-17T03:37:58;7.73;;;3.13;;
71622;SDS011;59473;53.214;5.728;2022-07-17T03:40:24;8.33;;;3.27;;
71622;SDS011;59473;53.214;5.728;2022-07-17T03:42:49;6.13;;;2.73;;
71622;SDS011;59473;53.214;5.728;2022-07-17T03:45:14;6.83;;;3.97;;
71622;SDS011;59473;53.214;5.728;2022-07-17T03:47:39;7.67;;;3.07;;
71622;SDS011;59473;53.214;5.728;2022-07-17T03:50:05;7.93;;;3.20;;
71622;SDS011;59473;53.214;5.728;2022-07-17T03:52:30;9.57;;;3.07;;
71622;SDS011;59473;53.214;5.728;2022-07-17T03:54:55;7.13;;;3.10;;
71622;SDS011;59473;53.214;5.728;2022-07-17T03:57:20;7.10;;;3.17;;
71622;SDS011;59473;53.214;5.728;2022-07-17T03:59:46;6.17;;;3.00;;
71622;SDS011;59473;53.214;5.728;2022-07-17T04:02:11;6.87;;;3.43;;
71622;SDS011;59473;53.214;5.728;2022-07-17T04:04:36;9.10;;;2.97;;
71622;SDS011;59473;53.214;5.728;2022-07-17T04:07:01;6.37;;;2.80;;
71622;SDS011;59473;53.214;5.728;2022-07-17T04:09:27;7.53;;;2.67;;
71622;SDS011;59473;53.214;5.728;2022-07-17T04:11:52;7.07;;;2.90;;
71622;SDS011;59473;53.214;5.728;2022-07-17T04:14:17;8.23;;;2.93;;
71622;SDS011;59473;53.214;5.728;2022-07-17T04:16:42;7.27;;;2.57;;
71622;SDS011;59473;53.214;5.728;2022-07-17T04:19:08;6.77;;;2.90;;
71622;SDS011;59473;53.214;5.728;2022-07-17T04:21:33;9.53;;;2.63;;
71622;SDS011;59473;53.214;5.728;2022-07-17T04:23:58;8.07;;;2.67;;
71622;SDS011;59473;53.214;5.728;2022-07-17T04:26:23;8.70;;;2.83;;
71622;SDS011;59473;53.214;5.728;2022-07-17T04:28:48;8.97;;;3.20;;
71622;SDS011;59473;53.214;5.728;2022-07-17T04:31:14;7.80;;;2.83;;
71622;SDS011;59473;53.214;5.728;2022-07-17T04:33:39;6.57;;;3.23;;
71622;SDS011;59473;53.214;5.728;2022-07-17T04:36:04;8.23;;;2.97;;
71622;SDS011;59473;53.214;5.728;2022-07-17T04:38:29;6.97;;;3.03;;
71622;SDS011;59473;53.214;5.728;2022-07-17T04:40:55;6.03;;;3.30;;
71622;SDS011;59473;53.214;5.728;2022-07-17T04:43:20;6.40;;;3.13;;
71622;SDS011;59473;53.214;5.728;2022-07-17T04:45:45;8.30;;;2.83;;
71622;SDS011;59473;53.214;5.728;2022-07-17T04:48:10;7.03;;;3.30;;
71622;SDS011;59473;53.214;5.728;2022-07-17T04:50:36;8.83;;;3.17;;
71622;SDS011;59473;53.214;5.728;2022-07-17T04:53:01;9.87;;;4.13;;
71622;SDS011;59473;53.214;5.728;2022-07-17T04:55:27;9.43;;;3.00;;
71622;SDS011;59473;53.214;5.728;2022-07-17T04:57:52;9.65;;;3.20;;
71622;SDS011;59473;53.214;5.728;2022-07-17T05:00:17;5.87;;;3.07;;
71622;SDS011;59473;53.214;5.728;2022-07-17T05:02:42;6.90;;;3.10;;
71622;SDS011;59473;53.214;5.728;2022-07-17T05:05:08;7.57;;;2.73;;
71622;SDS011;59473;53.214;5.728;2022-07-17T05:07:33;6.37;;;2.83;;
71622;SDS011;59473;53.214;5.728;2022-07-17T05:09:59;7.03;;;3.17;;
71622;SDS011;59473;53.214;5.728;2022-07-17T05:12:24;9.87;;;3.20;;
71622;SDS011;59473;53.214;5.728;2022-07-17T05:14:49;6.53;;;2.87;;
71622;SDS011;59473;53.214;5.728;2022-07-17T05:17:14;8.73;;;2.90;;
71622;SDS011;59473;53.214;5.728;2022-07-17T05:19:40;6.77;;;2.90;;
71622;SDS011;59473;53.214;5.728;2022-07-17T05:22:05;10.43;;;3.28;;
71622;SDS011;59473;53.214;5.728;2022-07-17T05:24:30;7.05;;;3.38;;
71622;SDS011;59473;53.214;5.728;2022-07-17T05:26:55;8.85;;;3.50;;
71622;SDS011;59473;53.214;5.728;2022-07-17T05:29:21;7.43;;;3.07;;
71622;SDS011;59473;53.214;5.728;2022-07-17T05:31:46;9.17;;;2.80;;
71622;SDS011;59473;53.214;5.728;2022-07-17T05:34:11;6.43;;;3.13;;
71622;SDS011;59473;53.214;5.728;2022-07-17T05:36:36;7.80;;;3.30;;
71622;SDS011;59473;53.214;5.728;2022-07-17T05:39:02;7.50;;;2.97;;
71622;SDS011;59473;53.214;5.728;2022-07-17T05:41:27;9.23;;;3.30;;
71622;SDS011;59473;53.214;5.728;2022-07-17T05:43:52;9.13;;;3.37;;
71622;SDS011;59473;53.214;5.728;2022-07-17T05:46:18;12.50;;;3.10;;
71622;SDS011;59473;53.214;5.728;2022-07-17T05:48:43;10.33;;;3.00;;
71622;SDS011;59473;53.214;5.728;2022-07-17T05:51:08;7.07;;;2.93;;
71622;SDS011;59473;53.214;5.728;2022-07-17T05:53:33;6.67;;;2.30;;
71622;SDS011;59473;53.214;5.728;2022-07-17T05:55:59;13.60;;;2.70;;
71622;SDS011;59473;53.214;5.728;2022-07-17T05:58:24;6.63;;;2.10;;
71622;SDS011;59473;53.214;5.728;2022-07-17T06:00:49;8.07;;;2.90;;
71622;SDS011;59473;53.214;5.728;2022-07-17T06:03:15;8.97;;;2.60;;
71622;SDS011;59473;53.214;5.728;2022-07-17T06:05:40;5.88;;;1.95;;
71622;SDS011;59473;53.214;5.728;2022-07-17T06:08:05;6.30;;;1.90;;
71622;SDS011;59473;53.214;5.728;2022-07-17T06:10:31;5.67;;;1.93;;
71622;SDS011;59473;53.214;5.728;2022-07-17T06:12:56;5.90;;;2.03;;
71622;SDS011;59473;53.214;5.728;2022-07-17T06:15:22;5.60;;;1.90;;
71622;SDS011;59473;53.214;5.728;2022-07-17T06:17:47;9.02;;;2.10;;
71622;SDS011;59473;53.214;5.728;2022-07-17T06:20:13;9.33;;;2.77;;
71622;SDS011;59473;53.214;5.728;2022-07-17T06:22:39;9.63;;;2.40;;
71622;SDS011;59473;53.214;5.728;2022-07-17T06:25:04;7.60;;;2.27;;
71622;SDS011;59473;53.214;5.728;2022-07-17T06:27:30;6.28;;;2.13;;
71622;SDS011;59473;53.214;5.728;2022-07-17T06:29:55;5.75;;;1.70;;
71622;SDS011;59473;53.214;5.728;2022-07-17T06:32:20;7.25;;;1.90;;
71622;SDS011;59473;53.214;5.728;2022-07-17T06:34:45;6.68;;;1.90;;
71622;SDS011;59473;53.214;5.728;2022-07-17T06:37:10;10.40;;;2.00;;
71622;SDS011;59473;53.214;5.728;2022-07-17T06:39:36;5.72;;;1.92;;
71622;SDS011;59473;53.214;5.728;2022-07-17T06:42:01;6.90;;;1.60;;
71622;SDS011;59473;53.214;5.728;2022-07-17T06:44:26;6.03;;;1.90;;
71622;SDS011;59473;53.214;5.728;2022-07-17T06:46:52;7.30;;;1.83;;
71622;SDS011;59473;53.214;5.728;2022-07-17T06:49:17;5.23;;;1.63;;
71622;SDS011;59473;53.214;5.728;2022-07-17T06:51:42;5.07;;;1.53;;
71622;SDS011;59473;53.214;5.728;2022-07-17T06:54:10;7.30;;;1.80;;
71622;SDS011;59473;53.214;5.728;2022-07-17T06:56:36;8.80;;;2.28;;
71622;SDS011;59473;53.214;5.728;2022-07-17T06:59:02;8.53;;;1.70;;
71622;SDS011;59473;53.214;5.728;2022-07-17T07:01:28;10.13;;;2.10;;
71622;SDS011;59473;53.214;5.728;2022-07-17T07:03:53;4.97;;;1.47;;
71622;SDS011;59473;53.214;5.728;2022-07-17T07:06:18;11.50;;;1.70;;
71622;SDS011;59473;53.214;5.728;2022-07-17T07:08:43;8.93;;;1.63;;
71622;SDS011;59473;53.214;5.728;2022-07-17T07:11:09;10.03;;;1.80;;
71622;SDS011;59473;53.214;5.728;2022-07-17T07:13:34;9.07;;;1.70;;
71622;SDS011;59473;53.214;5.728;2022-07-17T07:15:59;9.00;;;1.37;;
71622;SDS011;59473;53.214;5.728;2022-07-17T07:18:25;6.53;;;1.20;;
71622;SDS011;59473;53.214;5.728;2022-07-17T07:20:50;5.50;;;1.40;;
71622;SDS011;59473;53.214;5.728;2022-07-17T07:23:15;6.97;;;1.10;;
71622;SDS011;59473;53.214;5.728;2022-07-17T07:25:41;5.35;;;1.23;;
71622;SDS011;59473;53.214;5.728;2022-07-17T07:28:08;11.32;;;1.40;;
71622;SDS011;59473;53.214;5.728;2022-07-17T07:30:33;9.73;;;1.80;;
71622;SDS011;59473;53.214;5.728;2022-07-17T07:32:58;7.10;;;1.27;;
71622;SDS011;59473;53.214;5.728;2022-07-17T07:35:24;8.87;;;1.03;;
71622;SDS011;59473;53.214;5.728;2022-07-17T07:37:49;8.80;;;1.70;;
71622;SDS011;59473;53.214;5.728;2022-07-17T07:40:14;9.25;;;1.58;;
71622;SDS011;59473;53.214;5.728;2022-07-17T07:42:39;8.00;;;1.10;;
71622;SDS011;59473;53.214;5.728;2022-07-17T07:45:05;5.03;;;1.03;;
71622;SDS011;59473;53.214;5.728;2022-07-17T07:47:30;6.57;;;1.43;;
71622;SDS011;59473;53.214;5.728;2022-07-17T07:49:56;6.40;;;0.97;;
71622;SDS011;59473;53.214;5.728;2022-07-17T07:52:21;5.87;;;1.20;;
71622;SDS011;59473;53.214;5.728;2022-07-17T07:54:46;7.00;;;0.87;;
71622;SDS011;59473;53.214;5.728;2022-07-17T07:57:11;5.57;;;1.07;;
71622;SDS011;59473;53.214;5.728;2022-07-17T07:59:37;5.53;;;0.83;;
71622;SDS011;59473;53.214;5.728;2022-07-17T08:02:03;9.82;;;1.15;;
71622;SDS011;59473;53.214;5.728;2022-07-17T08:04:29;4.75;;;1.00;;
71622;SDS011;59473;53.214;5.728;2022-07-17T08:06:54;4.17;;;1.00;;
71622;SDS011;59473;53.214;5.728;2022-07-17T08:09:19;7.40;;;1.07;;
71622;SDS011;59473;53.214;5.728;2022-07-17T08:11:44;4.47;;;1.00;;
71622;SDS011;59473;53.214;5.728;2022-07-17T08:14:10;5.17;;;0.90;;
71622;SDS011;59473;53.214;5.728;2022-07-17T08:16:35;7.30;;;1.10;;
71622;SDS011;59473;53.214;5.728;2022-07-17T08:19:00;5.20;;;1.17;;
71622;SDS011;59473;53.214;5.728;2022-07-17T08:21:26;5.40;;;0.90;;
71622;SDS011;59473;53.214;5.728;2022-07-17T08:23:51;5.67;;;0.80;;
71622;SDS011;59473;53.214;5.728;2022-07-17T08:26:16;7.27;;;1.17;;
71622;SDS011;59473;53.214;5.728;2022-07-17T08:28:41;3.87;;;0.97;;
71622;SDS011;59473;53.214;5.728;2022-07-17T08:31:07;8.33;;;0.97;;
71622;SDS011;59473;53.214;5.728;2022-07-17T08:33:32;5.93;;;1.20;;
71622;SDS011;59473;53.214;5.728;2022-07-17T08:35:57;6.37;;;1.00;;
71622;SDS011;59473;53.214;5.728;2022-07-17T08:38:22;4.80;;;1.20;;
71622;SDS011;59473;53.214;5.728;2022-07-17T08:40:48;3.83;;;1.07;;
71622;SDS011;59473;53.214;5.728;2022-07-17T08:43:15;5.28;;;0.90;;
71622;SDS011;59473;53.214;5.728;2022-07-17T08:45:40;4.17;;;0.90;;
71622;SDS011;59473;53.214;5.728;2022-07-17T08:48:06;5.77;;;1.50;;
71622;SDS011;59473;53.214;5.728;2022-07-17T08:50:33;4.15;;;0.98;;
71622;SDS011;59473;53.214;5.728;2022-07-17T08:52:59;5.70;;;1.38;;
71622;SDS011;59473;53.214;5.728;2022-07-17T08:55:25;2.90;;;0.80;;
71622;SDS011;59473;53.214;5.728;2022-07-17T08:57:50;6.57;;;1.13;;
71622;SDS011;59473;53.214;5.728;2022-07-17T09:00:16;3.58;;;0.93;;
71622;SDS011;59473;53.214;5.728;2022-07-17T09:02:53;7.67;;;1.40;;
71622;SDS011;59473;53.214;5.728;2022-07-17T09:05:23;6.60;;;1.25;;
71622;SDS011;59473;53.214;5.728;2022-07-17T09:07:49;6.15;;;1.23;;
71622;SDS011;59473;53.214;5.728;2022-07-17T09:10:14;4.20;;;1.00;;
71622;SDS011;59473;53.214;5.728;2022-07-17T09:12:40;2.93;;;0.73;;
71622;SDS011;59473;53.214;5.728;2022-07-17T09:15:15;4.22;;;1.00;;
71622;SDS011;59473;53.214;5.728;2022-07-17T09:17:48;5.03;;;1.10;;
71622;SDS011;59473;53.214;5.728;2022-07-17T09:20:14;7.43;;;1.13;;
71622;SDS011;59473;53.214;5.728;2022-07-17T09:22:39;3.42;;;0.80;;
71622;SDS011;59473;53.214;5.728;2022-07-17T09:25:07;7.43;;;1.30;;
71622;SDS011;59473;53.214;5.728;2022-07-17T09:27:32;6.20;;;1.00;;
71622;SDS011;59473;53.214;5.728;2022-07-17T09:30:08;7.03;;;1.27;;
71622;SDS011;59473;53.214;5.728;2022-07-17T09:32:37;5.25;;;0.88;;
71622;SDS011;59473;53.214;5.728;2022-07-17T09:35:03;5.32;;;1.10;;
71622;SDS011;59473;53.214;5.728;2022-07-17T09:37:30;9.35;;;1.48;;
71622;SDS011;59473;53.214;5.728;2022-07-17T09:39:56;4.47;;;0.90;;
71622;SDS011;59473;53.214;5.728;2022-07-17T09:42:22;3.65;;;1.00;;
71622;SDS011;59473;53.214;5.728;2022-07-17T09:44:57;6.72;;;1.30;;
71622;SDS011;59473;53.214;5.728;2022-07-17T09:47:23;5.90;;;1.02;;
71622;SDS011;59473;53.214;5.728;2022-07-17T09:49:50;5.25;;;1.30;;
71622;SDS011;59473;53.214;5.728;2022-07-17T09:52:15;5.30;;;1.05;;
71622;SDS011;59473;53.214;5.728;2022-07-17T09:54:40;6.33;;;1.50;;
71622;SDS011;59473;53.214;5.728;2022-07-17T09:57:06;4.23;;;1.17;;
71622;SDS011;59473;53.214;5.728;2022-07-17T09:59:31;5.10;;;1.00;;
71622;SDS011;59473;53.214;5.728;2022-07-17T10:01:59;4.43;;;1.00;;
71622;SDS011;59473;53.214;5.728;2022-07-17T10:04:25;5.27;;;1.10;;
71622;SDS011;59473;53.214;5.728;2022-07-17T10:06:50;3.80;;;0.85;;
71622;SDS011;59473;53.214;5.728;2022-07-17T10:09:16;6.93;;;1.17;;
71622;SDS011;59473;53.214;5.728;2022-07-17T10:11:42;6.00;;;1.33;;
71622;SDS011;59473;53.214;5.728;2022-07-17T10:14:11;5.05;;;1.00;;
71622;SDS011;59473;53.214;5.728;2022-07-17T10:16:37;5.25;;;1.00;;
71622;SDS011;59473;53.214;5.728;2022-07-17T10:19:13;6.63;;;1.00;;
71622;SDS011;59473;53.214;5.728;2022-07-17T10:21:39;5.65;;;0.85;;
71622;SDS011;59473;53.214;5.728;2022-07-17T10:24:05;4.27;;;0.93;;
71622;SDS011;59473;53.214;5.728;2022-07-17T10:26:38;4.13;;;1.20;;
71622;SDS011;59473;53.214;5.728;2022-07-17T10:29:07;6.85;;;1.17;;
71622;SDS011;59473;53.214;5.728;2022-07-17T10:31:32;5.97;;;1.50;;
71622;SDS011;59473;53.214;5.728;2022-07-17T10:33:59;5.97;;;1.03;;
71622;SDS011;59473;53.214;5.728;2022-07-17T10:36:35;5.10;;;1.23;;
71622;SDS011;59473;53.214;5.728;2022-07-17T10:39:17;4.82;;;1.20;;
71622;SDS011;59473;53.214;5.728;2022-07-17T10:41:43;2.70;;;1.00;;
71622;SDS011;59473;53.214;5.728;2022-07-17T10:44:23;4.30;;;1.20;;
71622;SDS011;59473;53.214;5.728;2022-07-17T10:46:49;5.57;;;1.40;;
71622;SDS011;59473;53.214;5.728;2022-07-17T10:49:14;5.30;;;1.10;;
71622;SDS011;59473;53.214;5.728;2022-07-17T10:51:39;5.03;;;1.30;;
71622;SDS011;59473;53.214;5.728;2022-07-17T10:54:05;6.45;;;1.20;;
71622;SDS011;59473;53.214;5.728;2022-07-17T10:56:30;4.93;;;1.23;;
71622;SDS011;59473;53.214;5.728;2022-07-17T10:59:00;5.18;;;1.17;;
71622;SDS011;59473;53.214;5.728;2022-07-17T11:01:26;2.73;;;0.90;;
71622;SDS011;59473;53.214;5.728;2022-07-17T11:03:52;5.90;;;1.60;;
71622;SDS011;59473;53.214;5.728;2022-07-17T11:06:22;6.18;;;1.15;;
71622;SDS011;59473;53.214;5.728;2022-07-17T11:08:51;4.43;;;1.40;;
71622;SDS011;59473;53.214;5.728;2022-07-17T11:11:18;5.97;;;1.10;;
71622;SDS011;59473;53.214;5.728;2022-07-17T11:13:43;4.32;;;1.17;;
71622;SDS011;59473;53.214;5.728;2022-07-17T11:16:09;4.60;;;1.03;;
71622;SDS011;59473;53.214;5.728;2022-07-17T11:18:34;3.60;;;1.30;;
71622;SDS011;59473;53.214;5.728;2022-07-17T11:21:01;6.32;;;1.20;;
71622;SDS011;59473;53.214;5.728;2022-07-17T11:23:30;4.90;;;1.53;;
71622;SDS011;59473;53.214;5.728;2022-07-17T11:25:57;5.85;;;1.52;;
71622;SDS011;59473;53.214;5.728;2022-07-17T11:28:27;6.63;;;1.30;;
71622;SDS011;59473;53.214;5.728;2022-07-17T11:30:52;5.93;;;1.25;;
71622;SDS011;59473;53.214;5.728;2022-07-17T11:33:17;5.50;;;1.60;;
71622;SDS011;59473;53.214;5.728;2022-07-17T11:35:45;5.03;;;1.23;;
71622;SDS011;59473;53.214;5.728;2022-07-17T11:38:11;4.60;;;1.00;;
71622;SDS011;59473;53.214;5.728;2022-07-17T11:40:44;4.80;;;1.40;;
71622;SDS011;59473;53.214;5.728;2022-07-17T11:43:09;5.43;;;1.83;;
71622;SDS011;59473;53.214;5.728;2022-07-17T11:45:35;5.57;;;1.38;;
71622;SDS011;59473;53.214;5.728;2022-07-17T11:48:02;4.05;;;1.33;;
71622;SDS011;59473;53.214;5.728;2022-07-17T11:50:27;4.95;;;1.20;;
71622;SDS011;59473;53.214;5.728;2022-07-17T11:52:53;5.70;;;1.67;;
71622;SDS011;59473;53.214;5.728;2022-07-17T11:55:18;4.70;;;1.53;;
71622;SDS011;59473;53.214;5.728;2022-07-17T11:57:44;4.87;;;1.73;;
71622;SDS011;59473;53.214;5.728;2022-07-17T12:00:10;5.57;;;1.90;;
71622;SDS011;59473;53.214;5.728;2022-07-17T12:02:36;8.10;;;1.57;;
71622;SDS011;59473;53.214;5.728;2022-07-17T12:05:01;9.52;;;1.50;;
71622;SDS011;59473;53.214;5.728;2022-07-17T12:07:37;5.25;;;1.73;;
71622;SDS011;59473;53.214;5.728;2022-07-17T12:10:10;7.78;;;1.90;;
71622;SDS011;59473;53.214;5.728;2022-07-17T12:12:36;5.28;;;1.70;;
71622;SDS011;59473;53.214;5.728;2022-07-17T12:15:01;4.80;;;1.60;;
71622;SDS011;59473;53.214;5.728;2022-07-17T12:17:38;6.93;;;1.70;;
71622;SDS011;59473;53.214;5.728;2022-07-17T12:20:05;6.47;;;1.80;;
71622;SDS011;59473;53.214;5.728;2022-07-17T12:22:30;7.30;;;2.03;;
71622;SDS011;59473;53.214;5.728;2022-07-17T12:25:06;4.20;;;1.42;;
71622;SDS011;59473;53.214;5.728;2022-07-17T12:27:31;6.07;;;1.80;;
71622;SDS011;59473;53.214;5.728;2022-07-17T12:29:57;5.37;;;1.73;;
71622;SDS011;59473;53.214;5.728;2022-07-17T12:32:22;4.73;;;1.60;;
71622;SDS011;59473;53.214;5.728;2022-07-17T12:34:48;4.80;;;1.50;;
71622;SDS011;59473;53.214;5.728;2022-07-17T12:37:20;6.53;;;1.40;;
71622;SDS011;59473;53.214;5.728;2022-07-17T12:39:47;7.22;;;2.08;;
71622;SDS011;59473;53.214;5.728;2022-07-17T12:42:13;5.85;;;2.03;;
71622;SDS011;59473;53.214;5.728;2022-07-17T12:44:38;6.20;;;1.83;;
71622;SDS011;59473;53.214;5.728;2022-07-17T12:47:04;7.32;;;2.33;;
71622;SDS011;59473;53.214;5.728;2022-07-17T12:49:29;5.73;;;1.60;;
71622;SDS011;59473;53.214;5.728;2022-07-17T12:51:55;5.60;;;1.60;;
71622;SDS011;59473;53.214;5.728;2022-07-17T12:54:20;6.73;;;1.47;;
71622;SDS011;59473;53.214;5.728;2022-07-17T12:56:45;7.37;;;1.57;;
71622;SDS011;59473;53.214;5.728;2022-07-17T12:59:11;7.50;;;1.77;;
71622;SDS011;59473;53.214;5.728;2022-07-17T13:01:36;6.17;;;1.60;;
71622;SDS011;59473;53.214;5.728;2022-07-17T13:04:02;4.93;;;1.47;;
71622;SDS011;59473;53.214;5.728;2022-07-17T13:06:27;6.40;;;1.33;;
71622;SDS011;59473;53.214;5.728;2022-07-17T13:08:52;5.43;;;1.60;;
71622;SDS011;59473;53.214;5.728;2022-07-17T13:11:17;4.83;;;1.33;;
71622;SDS011;59473;53.214;5.728;2022-07-17T13:13:43;8.27;;;1.90;;
71622;SDS011;59473;53.214;5.728;2022-07-17T13:16:08;6.97;;;1.30;;
71622;SDS011;59473;53.214;5.728;2022-07-17T13:18:33;5.00;;;1.60;;
71622;SDS011;59473;53.214;5.728;2022-07-17T13:20:58;5.23;;;1.83;;
71622;SDS011;59473;53.214;5.728;2022-07-17T13:23:24;7.90;;;1.70;;
71622;SDS011;59473;53.214;5.728;2022-07-17T13:25:49;6.33;;;1.63;;
71622;SDS011;59473;53.214;5.728;2022-07-17T13:28:14;10.70;;;2.30;;
71622;SDS011;59473;53.214;5.728;2022-07-17T13:30:39;7.03;;;1.80;;
71622;SDS011;59473;53.214;5.728;2022-07-17T13:33:05;6.47;;;2.13;;
71622;SDS011;59473;53.214;5.728;2022-07-17T13:35:30;6.07;;;1.87;;
71622;SDS011;59473;53.214;5.728;2022-07-17T13:37:56;6.43;;;1.80;;
71622;SDS011;59473;53.214;5.728;2022-07-17T13:40:26;6.32;;;1.90;;
71622;SDS011;59473;53.214;5.728;2022-07-17T13:42:53;6.22;;;1.85;;
71622;SDS011;59473;53.214;5.728;2022-07-17T13:45:18;4.70;;;1.73;;
71622;SDS011;59473;53.214;5.728;2022-07-17T13:47:44;9.03;;;1.80;;
71622;SDS011;59473;53.214;5.728;2022-07-17T13:50:09;4.83;;;1.70;;
71622;SDS011;59473;53.214;5.728;2022-07-17T13:52:35;5.60;;;1.80;;
71622;SDS011;59473;53.214;5.728;2022-07-17T13:55:00;8.02;;;2.10;;
71622;SDS011;59473;53.214;5.728;2022-07-17T13:57:26;5.80;;;1.90;;
71622;SDS011;59473;53.214;5.728;2022-07-17T13:59:51;6.40;;;2.00;;
71622;SDS011;59473;53.214;5.728;2022-07-17T14:02:16;6.57;;;2.20;;
71622;SDS011;59473;53.214;5.728;2022-07-17T14:04:41;6.07;;;2.10;;
71622;SDS011;59473;53.214;5.728;2022-07-17T14:07:07;4.97;;;1.93;;
71622;SDS011;59473;53.214;5.728;2022-07-17T14:09:32;6.97;;;2.23;;
71622;SDS011;59473;53.214;5.728;2022-07-17T14:11:57;6.82;;;2.00;;
71622;SDS011;59473;53.214;5.728;2022-07-17T14:14:23;6.43;;;1.83;;
71622;SDS011;59473;53.214;5.728;2022-07-17T14:16:48;8.00;;;2.10;;
71622;SDS011;59473;53.214;5.728;2022-07-17T14:19:13;6.67;;;1.90;;
71622;SDS011;59473;53.214;5.728;2022-07-17T14:21:38;6.20;;;2.10;;
71622;SDS011;59473;53.214;5.728;2022-07-17T14:24:04;8.13;;;1.80;;
71622;SDS011;59473;53.214;5.728;2022-07-17T14:26:30;5.88;;;1.63;;
71622;SDS011;59473;53.214;5.728;2022-07-17T14:28:55;6.07;;;2.10;;
71622;SDS011;59473;53.214;5.728;2022-07-17T14:31:21;5.17;;;1.77;;
71622;SDS011;59473;53.214;5.728;2022-07-17T14:33:46;6.07;;;1.70;;
71622;SDS011;59473;53.214;5.728;2022-07-17T14:36:11;5.32;;;1.90;;
71622;SDS011;59473;53.214;5.728;2022-07-17T14:38:37;5.00;;;2.10;;
71622;SDS011;59473;53.214;5.728;2022-07-17T14:41:02;6.77;;;2.00;;